sensor_id;sensor_type;location;lat;lon;timestamp;pressure;altitude;pressure_sealevel;temperature
62706;BMP280;51050;51.784;9.372;2022-10-31T00:00:16;100897.09;;;16.86
62706;BMP280;51050;51.784;9.372;2022-10-31T00:02:42;100891.09;;;16.84
62706;BMP280;51050;51.784;9.372;2022-10-31T00:05:07;100888.31;;;16.84
62706;BMP280;51050;51.784;9.372;2022-10-31T00:07:32;100889.44;;;16.83
62706;BMP280;51050;51.784;9.372;2022-10-31T00:09:57;100893.03;;;16.83
62706;BMP280;51050;51.784;9.372;2022-10-31T00:12:22;100892.22;;;16.83
62706;BMP280;51050;51.784;9.372;2022-10-31T00:14:47;100896.94;;;16.82
62706;BMP280;51050;51.784;9.372;2022-10-31T00:17:13;100896.09;;;16.82
62706;BMP280;51050;51.784;9.372;2022-10-31T00:19:38;100902.75;;;16.81
62706;BMP280;51050;51.784;9.372;2022-10-31T00:22:03;100906.34;;;16.81
62706;BMP280;51050;51.784;9.372;2022-10-31T00:24:28;100914.13;;;16.79
62706;BMP280;51050;51.784;9.372;2022-10-31T00:26:53;100908.59;;;16.79
62706;BMP280;51050;51.784;9.372;2022-10-31T00:29:18;100918.84;;;16.79
62706;BMP280;51050;51.784;9.372;2022-10-31T00:31:44;100922.41;;;16.79
62706;BMP280;51050;51.784;9.372;2022-10-31T00:34:09;100922.41;;;16.79
62706;BMP280;51050;51.784;9.372;2022-10-31T00:36:34;100927.44;;;16.77
62706;BMP280;51050;51.784;9.372;2022-10-31T00:38:59;100926.63;;;16.77
62706;BMP280;51050;51.784;9.372;2022-10-31T00:41:25;100936.84;;;16.76
62706;BMP280;51050;51.784;9.372;2022-10-31T00:43:50;100945.16;;;16.76
62706;BMP280;51050;51.784;9.372;2022-10-31T00:46:15;100935.72;;;16.77
62706;BMP280;51050;51.784;9.372;2022-10-31T00:48:41;100939.63;;;16.76
62706;BMP280;51050;51.784;9.372;2022-10-31T00:51:06;100932.47;;;16.75
62706;BMP280;51050;51.784;9.372;2022-10-31T00:53:31;100939.97;;;16.75
62706;BMP280;51050;51.784;9.372;2022-10-31T00:55:56;100954.59;;;16.75
62706;BMP280;51050;51.784;9.372;2022-10-31T00:58:22;100945.47;;;16.75
62706;BMP280;51050;51.784;9.372;2022-10-31T01:00:50;100953.78;;;16.75
62706;BMP280;51050;51.784;9.372;2022-10-31T01:03:24;100962.06;;;16.75
62706;BMP280;51050;51.784;9.372;2022-10-31T01:06:11;100951.00;;;16.75
62706;BMP280;51050;51.784;9.372;2022-10-31T01:08:36;100949.69;;;16.72
62706;BMP280;51050;51.784;9.372;2022-10-31T01:11:11;100950.50;;;16.73
62706;BMP280;51050;51.784;9.372;2022-10-31T01:13:38;100953.56;;;16.71
62706;BMP280;51050;51.784;9.372;2022-10-31T01:16:03;100947.22;;;16.71
62706;BMP280;51050;51.784;9.372;2022-10-31T01:18:29;100957.47;;;16.70
62706;BMP280;51050;51.784;9.372;2022-10-31T01:21:01;100959.09;;;16.71
62706;BMP280;51050;51.784;9.372;2022-10-31T01:23:27;100950.81;;;16.71
62706;BMP280;51050;51.784;9.372;2022-10-31T01:28:29;100949.97;;;16.71
62706;BMP280;51050;51.784;9.372;2022-10-31T01:30:55;100955.81;;;16.69
62706;BMP280;51050;51.784;9.372;2022-10-31T01:33:20;100958.88;;;16.68
62706;BMP280;51050;51.784;9.372;2022-10-31T01:35:45;100956.13;;;16.68
62706;BMP280;51050;51.784;9.372;2022-10-31T01:38:10;100960.03;;;16.67
62706;BMP280;51050;51.784;9.372;2022-10-31T01:40:35;100956.47;;;16.66
62706;BMP280;51050;51.784;9.372;2022-10-31T01:43:00;100954.50;;;16.67
62706;BMP280;51050;51.784;9.372;2022-10-31T01:45:26;100951.75;;;16.67
62706;BMP280;51050;51.784;9.372;2022-10-31T01:47:51;100954.50;;;16.67
62706;BMP280;51050;51.784;9.372;2022-10-31T01:50:30;100963.94;;;16.66
62706;BMP280;51050;51.784;9.372;2022-10-31T01:52:56;100947.66;;;16.64
62706;BMP280;51050;51.784;9.372;2022-10-31T01:55:30;100960.66;;;16.63
62706;BMP280;51050;51.784;9.372;2022-10-31T01:57:58;100955.13;;;16.63
62706;BMP280;51050;51.784;9.372;2022-10-31T02:00:24;100954.31;;;16.63
62706;BMP280;51050;51.784;9.372;2022-10-31T02:02:49;100959.81;;;16.63
62706;BMP280;51050;51.784;9.372;2022-10-31T02:05:17;100962.59;;;16.63
62706;BMP280;51050;51.784;9.372;2022-10-31T02:07:45;100959.00;;;16.62
62706;BMP280;51050;51.784;9.372;2022-10-31T02:10:12;100960.13;;;16.61
62706;BMP280;51050;51.784;9.372;2022-10-31T02:12:37;100958.47;;;16.60
62706;BMP280;51050;51.784;9.372;2022-10-31T02:15:03;100970.38;;;16.61
62706;BMP280;51050;51.784;9.372;2022-10-31T02:17:29;100958.47;;;16.60
62706;BMP280;51050;51.784;9.372;2022-10-31T02:19:57;100961.22;;;16.60
62706;BMP280;51050;51.784;9.372;2022-10-31T02:22:28;100963.50;;;16.58
62706;BMP280;51050;51.784;9.372;2022-10-31T02:30:23;100962.69;;;16.58
62706;BMP280;51050;51.784;9.372;2022-10-31T02:32:54;100963.81;;;16.57
62706;BMP280;51050;51.784;9.372;2022-10-31T02:38:01;100961.88;;;16.57
62706;BMP280;51050;51.784;9.372;2022-10-31T02:40:30;100956.63;;;16.56
62706;BMP280;51050;51.784;9.372;2022-10-31T02:43:17;100969.63;;;16.55
62706;BMP280;51050;51.784;9.372;2022-10-31T02:46:02;100953.88;;;16.56
62706;BMP280;51050;51.784;9.372;2022-10-31T02:48:30;100950.59;;;16.54
62706;BMP280;51050;51.784;9.372;2022-10-31T02:50:58;100945.06;;;16.54
62706;BMP280;51050;51.784;9.372;2022-10-31T02:53:24;100950.59;;;16.54
62706;BMP280;51050;51.784;9.372;2022-10-31T02:58:24;100947.31;;;16.52
62706;BMP280;51050;51.784;9.372;2022-10-31T03:01:11;100941.78;;;16.52
62706;BMP280;51050;51.784;9.372;2022-10-31T03:08:39;100942.91;;;16.51
62706;BMP280;51050;51.784;9.372;2022-10-31T03:11:07;100953.16;;;16.50
62706;BMP280;51050;51.784;9.372;2022-10-31T03:16:18;100953.16;;;16.50
62706;BMP280;51050;51.784;9.372;2022-10-31T03:18:53;100953.16;;;16.50
62706;BMP280;51050;51.784;9.372;2022-10-31T03:21:21;100951.53;;;16.49
62706;BMP280;51050;51.784;9.372;2022-10-31T03:23:48;100957.38;;;16.48
62706;BMP280;51050;51.784;9.372;2022-10-31T03:26:15;100954.31;;;16.49
62706;BMP280;51050;51.784;9.372;2022-10-31T03:28:44;100957.38;;;16.48
62706;BMP280;51050;51.784;9.372;2022-10-31T03:31:10;100958.50;;;16.47
62706;BMP280;51050;51.784;9.372;2022-10-31T03:33:37;100968.72;;;16.46
62706;BMP280;51050;51.784;9.372;2022-10-31T03:36:04;100965.13;;;16.46
62706;BMP280;51050;51.784;9.372;2022-10-31T03:38:31;100977.00;;;16.46
62706;BMP280;51050;51.784;9.372;2022-10-31T03:40:57;100987.25;;;16.46
62706;BMP280;51050;51.784;9.372;2022-10-31T03:43:26;100994.72;;;16.45
62706;BMP280;51050;51.784;9.372;2022-10-31T03:45:53;100991.13;;;16.45
62706;BMP280;51050;51.784;9.372;2022-10-31T03:48:19;100992.25;;;16.44
62706;BMP280;51050;51.784;9.372;2022-10-31T03:53:13;100993.38;;;16.43
62706;BMP280;51050;51.784;9.372;2022-10-31T03:55:40;100996.47;;;16.41
62706;BMP280;51050;51.784;9.372;2022-10-31T03:58:12;100988.97;;;16.42
62706;BMP280;51050;51.784;9.372;2022-10-31T04:00:38;100994.50;;;16.42
62706;BMP280;51050;51.784;9.372;2022-10-31T04:03:14;100986.22;;;16.42
62706;BMP280;51050;51.784;9.372;2022-10-31T04:05:39;100993.72;;;16.41
62706;BMP280;51050;51.784;9.372;2022-10-31T04:08:08;100989.31;;;16.40
62706;BMP280;51050;51.784;9.372;2022-10-31T04:10:34;100990.13;;;16.41
62706;BMP280;51050;51.784;9.372;2022-10-31T04:13:05;100984.59;;;16.41
62706;BMP280;51050;51.784;9.372;2022-10-31T04:15:31;100993.19;;;16.39
62706;BMP280;51050;51.784;9.372;2022-10-31T04:17:58;100990.72;;;16.38
62706;BMP280;51050;51.784;9.372;2022-10-31T04:20:34;100990.72;;;16.38
62706;BMP280;51050;51.784;9.372;2022-10-31T04:23:00;100984.09;;;16.39
62706;BMP280;51050;51.784;9.372;2022-10-31T04:25:25;100996.25;;;16.38
62706;BMP280;51050;51.784;9.372;2022-10-31T04:27:51;100992.66;;;16.37
62706;BMP280;51050;51.784;9.372;2022-10-31T04:30:16;100991.84;;;16.37
62706;BMP280;51050;51.784;9.372;2022-10-31T04:32:41;100988.28;;;16.36
62706;BMP280;51050;51.784;9.372;2022-10-31T04:35:06;100989.38;;;16.35
62706;BMP280;51050;51.784;9.372;2022-10-31T04:37:31;100988.28;;;16.36
62706;BMP280;51050;51.784;9.372;2022-10-31T04:39:57;100987.44;;;16.36
62706;BMP280;51050;51.784;9.372;2022-10-31T04:42:22;100989.38;;;16.35
62706;BMP280;51050;51.784;9.372;2022-10-31T04:44:47;100985.81;;;16.35
62706;BMP280;51050;51.784;9.372;2022-10-31T04:47:12;100989.38;;;16.35
62706;BMP280;51050;51.784;9.372;2022-10-31T04:49:37;100992.47;;;16.34
62706;BMP280;51050;51.784;9.372;2022-10-31T04:52:02;100986.13;;;16.33
62706;BMP280;51050;51.784;9.372;2022-10-31T04:54:28;100993.59;;;16.33
62706;BMP280;51050;51.784;9.372;2022-10-31T04:56:53;100993.59;;;16.33
62706;BMP280;51050;51.784;9.372;2022-10-31T04:59:18;100998.31;;;16.32
62706;BMP280;51050;51.784;9.372;2022-10-31T05:01:43;100993.09;;;16.31
62706;BMP280;51050;51.784;9.372;2022-10-31T05:04:08;100987.56;;;16.31
62706;BMP280;51050;51.784;9.372;2022-10-31T05:06:33;100993.91;;;16.31
62706;BMP280;51050;51.784;9.372;2022-10-31T05:08:58;100986.44;;;16.32
62706;BMP280;51050;51.784;9.372;2022-10-31T05:11:24;100978.47;;;16.30
62706;BMP280;51050;51.784;9.372;2022-10-31T05:13:49;100995.84;;;16.31
62706;BMP280;51050;51.784;9.372;2022-10-31T05:16:14;100991.97;;;16.32
62706;BMP280;51050;51.784;9.372;2022-10-31T05:18:39;100997.50;;;16.32
62706;BMP280;51050;51.784;9.372;2022-10-31T05:21:04;100993.09;;;16.31
62706;BMP280;51050;51.784;9.372;2022-10-31T05:23:29;101001.91;;;16.33
62706;BMP280;51050;51.784;9.372;2022-10-31T05:25:54;100989.50;;;16.30
62706;BMP280;51050;51.784;9.372;2022-10-31T05:28:20;100999.72;;;16.30
62706;BMP280;51050;51.784;9.372;2022-10-31T05:30:45;100987.88;;;16.29
62706;BMP280;51050;51.784;9.372;2022-10-31T05:33:10;100996.16;;;16.29
62706;BMP280;51050;51.784;9.372;2022-10-31T05:35:35;100991.75;;;16.28
62706;BMP280;51050;51.784;9.372;2022-10-31T05:38:00;100995.63;;;16.27
62706;BMP280;51050;51.784;9.372;2022-10-31T05:40:26;100998.69;;;16.25
62706;BMP280;51050;51.784;9.372;2022-10-31T05:42:52;101001.47;;;16.25
62706;BMP280;51050;51.784;9.372;2022-10-31T05:45:17;100999.50;;;16.26
62706;BMP280;51050;51.784;9.372;2022-10-31T05:50:17;100991.56;;;16.24
62706;BMP280;51050;51.784;9.372;2022-10-31T05:52:42;100994.31;;;16.24
62706;BMP280;51050;51.784;9.372;2022-10-31T05:55:08;100987.47;;;16.22
62706;BMP280;51050;51.784;9.372;2022-10-31T05:57:33;100984.19;;;16.20
62706;BMP280;51050;51.784;9.372;2022-10-31T05:59:58;100985.81;;;16.21
62706;BMP280;51050;51.784;9.372;2022-10-31T06:02:24;100985.00;;;16.20
62706;BMP280;51050;51.784;9.372;2022-10-31T06:04:49;100987.25;;;16.18
62706;BMP280;51050;51.784;9.372;2022-10-31T06:07:14;100979.78;;;16.19
62706;BMP280;51050;51.784;9.372;2022-10-31T06:09:39;100977.31;;;16.17
62706;BMP280;51050;51.784;9.372;2022-10-31T06:12:04;100983.66;;;16.18
62706;BMP280;51050;51.784;9.372;2022-10-31T06:14:29;100988.34;;;16.17
62706;BMP280;51050;51.784;9.372;2022-10-31T06:16:55;100989.47;;;16.16
62706;BMP280;51050;51.784;9.372;2022-10-31T06:19:20;100996.66;;;16.17
62706;BMP280;51050;51.784;9.372;2022-10-31T06:21:45;100999.75;;;16.16
62706;BMP280;51050;51.784;9.372;2022-10-31T06:24:10;100997.75;;;16.16
62706;BMP280;51050;51.784;9.372;2022-10-31T06:26:35;100994.22;;;16.16
62706;BMP280;51050;51.784;9.372;2022-10-31T06:29:01;100992.56;;;16.15
62706;BMP280;51050;51.784;9.372;2022-10-31T06:31:26;100987.34;;;16.13
62706;BMP280;51050;51.784;9.372;2022-10-31T06:33:51;100987.34;;;16.13
62706;BMP280;51050;51.784;9.372;2022-10-31T06:36:16;100990.13;;;16.13
62706;BMP280;51050;51.784;9.372;2022-10-31T06:38:41;100985.72;;;16.12
62706;BMP280;51050;51.784;9.372;2022-10-31T06:41:06;100997.56;;;16.13
62706;BMP280;51050;51.784;9.372;2022-10-31T06:43:32;100992.34;;;16.11
62706;BMP280;51050;51.784;9.372;2022-10-31T06:45:57;100984.06;;;16.11
62706;BMP280;51050;51.784;9.372;2022-10-31T06:48:22;100990.72;;;16.10
62706;BMP280;51050;51.784;9.372;2022-10-31T06:50:47;100991.53;;;16.11
62706;BMP280;51050;51.784;9.372;2022-10-31T06:53:13;100995.41;;;16.10
62706;BMP280;51050;51.784;9.372;2022-10-31T06:55:39;101006.47;;;16.10
62706;BMP280;51050;51.784;9.372;2022-10-31T06:58:04;101002.56;;;16.11
62706;BMP280;51050;51.784;9.372;2022-10-31T07:00:29;101004.53;;;16.10
62706;BMP280;51050;51.784;9.372;2022-10-31T07:03:02;101010.03;;;16.10
62706;BMP280;51050;51.784;9.372;2022-10-31T07:05:28;101017.50;;;16.10
62706;BMP280;51050;51.784;9.372;2022-10-31T07:07:54;101011.16;;;16.09
62706;BMP280;51050;51.784;9.372;2022-10-31T07:10:20;101009.53;;;16.08
62706;BMP280;51050;51.784;9.372;2022-10-31T07:12:45;101010.34;;;16.09
62706;BMP280;51050;51.784;9.372;2022-10-31T07:15:10;101006.75;;;16.08
62706;BMP280;51050;51.784;9.372;2022-10-31T07:17:35;101005.16;;;16.07
62706;BMP280;51050;51.784;9.372;2022-10-31T07:20:00;101007.09;;;16.07
62706;BMP280;51050;51.784;9.372;2022-10-31T07:22:31;101005.44;;;16.06
62706;BMP280;51050;51.784;9.372;2022-10-31T07:24:56;101014.56;;;16.06
62706;BMP280;51050;51.784;9.372;2022-10-31T07:27:22;101020.91;;;16.07
62706;BMP280;51050;51.784;9.372;2022-10-31T07:29:47;101011.78;;;16.06
62706;BMP280;51050;51.784;9.372;2022-10-31T07:32:12;101019.25;;;16.06
62706;BMP280;51050;51.784;9.372;2022-10-31T07:34:37;101018.13;;;16.07
62706;BMP280;51050;51.784;9.372;2022-10-31T07:37:02;101020.91;;;16.07
62706;BMP280;51050;51.784;9.372;2022-10-31T07:39:27;101025.59;;;16.06
62706;BMP280;51050;51.784;9.372;2022-10-31T07:41:52;101024.78;;;16.06
62706;BMP280;51050;51.784;9.372;2022-10-31T07:44:18;101025.59;;;16.06
62706;BMP280;51050;51.784;9.372;2022-10-31T07:46:43;101027.53;;;16.06
62706;BMP280;51050;51.784;9.372;2022-10-31T07:49:08;101024.78;;;16.06
62706;BMP280;51050;51.784;9.372;2022-10-31T07:51:33;101021.19;;;16.05
62706;BMP280;51050;51.784;9.372;2022-10-31T07:53:58;101026.72;;;16.05
62706;BMP280;51050;51.784;9.372;2022-10-31T07:56:23;101027.53;;;16.06
62706;BMP280;51050;51.784;9.372;2022-10-31T07:58:48;101026.41;;;16.07
62706;BMP280;51050;51.784;9.372;2022-10-31T08:01:14;101023.97;;;16.05
62706;BMP280;51050;51.784;9.372;2022-10-31T08:03:39;101022.03;;;16.06
62706;BMP280;51050;51.784;9.372;2022-10-31T08:06:04;101015.69;;;16.05
62706;BMP280;51050;51.784;9.372;2022-10-31T08:08:29;101014.56;;;16.06
62706;BMP280;51050;51.784;9.372;2022-10-31T08:10:54;101018.13;;;16.07
62706;BMP280;51050;51.784;9.372;2022-10-31T08:13:20;101011.78;;;16.06
62706;BMP280;51050;51.784;9.372;2022-10-31T08:15:45;101021.19;;;16.05
62706;BMP280;51050;51.784;9.372;2022-10-31T08:18:15;101013.72;;;16.06
62706;BMP280;51050;51.784;9.372;2022-10-31T08:20:40;101012.63;;;16.07
62706;BMP280;51050;51.784;9.372;2022-10-31T08:23:06;101011.78;;;16.06
62706;BMP280;51050;51.784;9.372;2022-10-31T08:25:31;101009.03;;;16.06
62706;BMP280;51050;51.784;9.372;2022-10-31T08:27:57;101016.19;;;16.07
62706;BMP280;51050;51.784;9.372;2022-10-31T08:30:24;101006.28;;;16.06
62706;BMP280;51050;51.784;9.372;2022-10-31T08:33:02;101006.28;;;16.06
62706;BMP280;51050;51.784;9.372;2022-10-31T08:35:28;101005.16;;;16.07
62706;BMP280;51050;51.784;9.372;2022-10-31T08:37:53;101002.38;;;16.07
62706;BMP280;51050;51.784;9.372;2022-10-31T08:40:19;101004.00;;;16.08
62706;BMP280;51050;51.784;9.372;2022-10-31T08:42:44;100988.25;;;16.09
62706;BMP280;51050;51.784;9.372;2022-10-31T08:45:09;100992.66;;;16.10
62706;BMP280;51050;51.784;9.372;2022-10-31T08:47:35;100993.47;;;16.10
62706;BMP280;51050;51.784;9.372;2022-10-31T08:50:00;100995.72;;;16.08
62706;BMP280;51050;51.784;9.372;2022-10-31T08:52:25;100999.28;;;16.09
62706;BMP280;51050;51.784;9.372;2022-10-31T08:54:51;100997.34;;;16.09
62706;BMP280;51050;51.784;9.372;2022-10-31T08:57:16;100995.41;;;16.10
62706;BMP280;51050;51.784;9.372;2022-10-31T08:59:41;100998.41;;;16.13
62706;BMP280;51050;51.784;9.372;2022-10-31T09:02:07;100999.09;;;16.05
62706;BMP280;51050;51.784;9.372;2022-10-31T09:04:32;100999.88;;;15.92
62706;BMP280;51050;51.784;9.372;2022-10-31T09:06:57;100994.78;;;15.85
62706;BMP280;51050;51.784;9.372;2022-10-31T09:09:22;100992.59;;;15.82
62706;BMP280;51050;51.784;9.372;2022-10-31T09:11:47;100986.06;;;15.78
62706;BMP280;51050;51.784;9.372;2022-10-31T09:14:13;100994.34;;;15.78
62706;BMP280;51050;51.784;9.372;2022-10-31T09:16:38;100991.06;;;15.76
62706;BMP280;51050;51.784;9.372;2022-10-31T09:19:03;100992.72;;;15.77
62706;BMP280;51050;51.784;9.372;2022-10-31T09:21:28;100993.53;;;15.78
62706;BMP280;51050;51.784;9.372;2022-10-31T09:23:53;100991.88;;;15.77
62706;BMP280;51050;51.784;9.372;2022-10-31T09:26:18;100981.97;;;15.76
62706;BMP280;51050;51.784;9.372;2022-10-31T09:28:44;100989.66;;;15.79
62706;BMP280;51050;51.784;9.372;2022-10-31T09:31:09;100987.72;;;15.79
62706;BMP280;51050;51.784;9.372;2022-10-31T09:33:34;100981.88;;;15.81
62706;BMP280;51050;51.784;9.372;2022-10-31T09:36:00;100981.66;;;15.77
62706;BMP280;51050;51.784;9.372;2022-10-31T09:38:25;100978.59;;;15.79
62706;BMP280;51050;51.784;9.372;2022-10-31T09:46:18;100970.63;;;15.77
62706;BMP280;51050;51.784;9.372;2022-10-31T09:51:17;100963.38;;;15.81
62706;BMP280;51050;51.784;9.372;2022-10-31T09:53:44;100917.50;;;15.53
62706;BMP280;51050;51.784;9.372;2022-10-31T09:56:11;100961.75;;;15.80
62706;BMP280;51050;51.784;9.372;2022-10-31T09:58:40;100953.47;;;15.80
62706;BMP280;51050;51.784;9.372;2022-10-31T10:01:06;100952.84;;;15.83
62706;BMP280;51050;51.784;9.372;2022-10-31T10:03:40;100959.19;;;15.84
62706;BMP280;51050;51.784;9.372;2022-10-31T10:06:15;100950.91;;;15.84
62706;BMP280;51050;51.784;9.372;2022-10-31T10:08:42;100950.06;;;15.83
62706;BMP280;51050;51.784;9.372;2022-10-31T10:26:30;100950.53;;;15.91
62706;BMP280;51050;51.784;9.372;2022-10-31T10:29:06;100944.66;;;15.92
62706;BMP280;51050;51.784;9.372;2022-10-31T10:31:37;100945.78;;;15.91
62706;BMP280;51050;51.784;9.372;2022-10-31T10:34:13;100945.50;;;15.93
62706;BMP280;51050;51.784;9.372;2022-10-31T10:36:42;100936.09;;;15.94
62706;BMP280;51050;51.784;9.372;2022-10-31T10:39:18;100930.25;;;15.95
62706;BMP280;51050;51.784;9.372;2022-10-31T10:41:47;100928.31;;;15.96
62706;BMP280;51050;51.784;9.372;2022-10-31T10:44:32;100926.91;;;15.98
62706;BMP280;51050;51.784;9.372;2022-10-31T10:47:17;100926.28;;;16.01
62706;BMP280;51050;51.784;9.372;2022-10-31T10:50:01;100919.84;;;16.06
62706;BMP280;51050;51.784;9.372;2022-10-31T10:52:37;100914.03;;;16.07
62706;BMP280;51050;51.784;9.372;2022-10-31T11:00:41;100894.69;;;16.07
62706;BMP280;51050;51.784;9.372;2022-10-31T11:03:05;100898.56;;;16.06
62706;BMP280;51050;51.784;9.372;2022-10-31T11:07:55;100890.97;;;16.25
62706;BMP280;51050;51.784;9.372;2022-10-31T11:10:20;100894.03;;;16.38
62706;BMP280;51050;51.784;9.372;2022-10-31T11:13:31;100883.56;;;16.48
62706;BMP280;51050;51.784;9.372;2022-10-31T11:15:33;100887.97;;;16.49
62706;BMP280;51050;51.784;9.372;2022-10-31T11:18:00;100879.19;;;16.47
62706;BMP280;51050;51.784;9.372;2022-10-31T11:20:33;100876.72;;;16.46
62706;BMP280;51050;51.784;9.372;2022-10-31T11:23:04;100873.97;;;16.46
62706;BMP280;51050;51.784;9.372;2022-10-31T11:25:29;100873.34;;;16.49
62706;BMP280;51050;51.784;9.372;2022-10-31T11:28:01;100873.00;;;16.50
62706;BMP280;51050;51.784;9.372;2022-10-31T11:30:27;100869.13;;;16.51
62706;BMP280;51050;51.784;9.372;2022-10-31T11:32:53;100860.53;;;16.53
62706;BMP280;51050;51.784;9.372;2022-10-31T11:35:18;100855.63;;;16.63
62706;BMP280;51050;51.784;9.372;2022-10-31T11:37:46;100854.34;;;16.70
62706;BMP280;51050;51.784;9.372;2022-10-31T11:40:16;100855.81;;;16.67
62706;BMP280;51050;51.784;9.372;2022-10-31T11:42:41;100850.59;;;16.66
62706;BMP280;51050;51.784;9.372;2022-10-31T11:45:13;100833.19;;;16.65
62706;BMP280;51050;51.784;9.372;2022-10-31T11:47:40;100845.91;;;16.66
62706;BMP280;51050;51.784;9.372;2022-10-31T11:50:10;100839.72;;;16.69
62706;BMP280;51050;51.784;9.372;2022-10-31T11:52:37;100837.47;;;16.71
62706;BMP280;51050;51.784;9.372;2022-10-31T11:57:48;100836.13;;;16.69
62706;BMP280;51050;51.784;9.372;2022-10-31T12:00:22;100830.13;;;16.67
62706;BMP280;51050;51.784;9.372;2022-10-31T12:02:48;100827.69;;;16.65
62706;BMP280;51050;51.784;9.372;2022-10-31T12:07:41;100813.84;;;16.65
62706;BMP280;51050;51.784;9.372;2022-10-31T12:10:10;100816.94;;;16.63
62706;BMP280;51050;51.784;9.372;2022-10-31T12:12:41;100813.34;;;16.63
62706;BMP280;51050;51.784;9.372;2022-10-31T12:15:27;100799.53;;;16.63
62706;BMP280;51050;51.784;9.372;2022-10-31T12:18:00;100793.69;;;16.64
62706;BMP280;51050;51.784;9.372;2022-10-31T12:23:16;100787.34;;;16.64
62706;BMP280;51050;51.784;9.372;2022-10-31T12:31:07;100777.09;;;16.64
62706;BMP280;51050;51.784;9.372;2022-10-31T12:33:44;100766.88;;;16.65
62706;BMP280;51050;51.784;9.372;2022-10-31T12:41:23;100746.88;;;16.68
62706;BMP280;51050;51.784;9.372;2022-10-31T12:43:57;100750.66;;;16.72
62706;BMP280;51050;51.784;9.372;2022-10-31T12:54:31;100734.94;;;16.81
62706;BMP280;51050;51.784;9.372;2022-10-31T12:59:47;100720.16;;;16.86
62706;BMP280;51050;51.784;9.372;2022-10-31T13:07:09;100714.19;;;16.92
62706;BMP280;51050;51.784;9.372;2022-10-31T13:09:38;100715.78;;;16.93
62706;BMP280;51050;51.784;9.372;2022-10-31T13:12:09;100702.47;;;16.95
62706;BMP280;51050;51.784;9.372;2022-10-31T13:14:36;100701.84;;;16.98
62706;BMP280;51050;51.784;9.372;2022-10-31T13:17:04;100695.19;;;16.99
62706;BMP280;51050;51.784;9.372;2022-10-31T13:19:31;100688.53;;;17.00
62706;BMP280;51050;51.784;9.372;2022-10-31T13:24:33;100677.63;;;17.04
62706;BMP280;51050;51.784;9.372;2022-10-31T13:27:01;100669.81;;;17.06
62706;BMP280;51050;51.784;9.372;2022-10-31T13:29:32;100665.63;;;17.09
62706;BMP280;51050;51.784;9.372;2022-10-31T13:31:59;100669.19;;;17.09
62706;BMP280;51050;51.784;9.372;2022-10-31T13:34:26;100667.72;;;17.12
62706;BMP280;51050;51.784;9.372;2022-10-31T13:41:59;100663.00;;;17.12
62706;BMP280;51050;51.784;9.372;2022-10-31T13:44:27;100665.47;;;17.14
62706;BMP280;51050;51.784;9.372;2022-10-31T13:46:54;100652.44;;;17.14
62706;BMP280;51050;51.784;9.372;2022-10-31T13:51:50;100654.09;;;17.15
62706;BMP280;51050;51.784;9.372;2022-10-31T13:54:21;100645.47;;;17.17
62706;BMP280;51050;51.784;9.372;2022-10-31T13:56:50;100651.00;;;17.17
62706;BMP280;51050;51.784;9.372;2022-10-31T13:59:17;100647.25;;;17.21
62706;BMP280;51050;51.784;9.372;2022-10-31T14:01:45;100653.91;;;17.20
62706;BMP280;51050;51.784;9.372;2022-10-31T14:04:16;100656.69;;;17.20
62706;BMP280;51050;51.784;9.372;2022-10-31T14:06:43;100648.56;;;17.24
62706;BMP280;51050;51.784;9.372;2022-10-31T14:11:48;100646.47;;;17.29
62706;BMP280;51050;51.784;9.372;2022-10-31T14:14:14;100649.09;;;17.34
62706;BMP280;51050;51.784;9.372;2022-10-31T14:16:40;100639.16;;;17.33
62706;BMP280;51050;51.784;9.372;2022-10-31T14:19:08;100641.44;;;17.31
62706;BMP280;51050;51.784;9.372;2022-10-31T14:21:40;100640.63;;;17.31
62706;BMP280;51050;51.784;9.372;2022-10-31T14:29:28;100620.44;;;17.39
62706;BMP280;51050;51.784;9.372;2022-10-31T14:31:54;100624.03;;;17.39
62706;BMP280;51050;51.784;9.372;2022-10-31T14:34:30;100617.38;;;17.40
62706;BMP280;51050;51.784;9.372;2022-10-31T14:44:34;100614.09;;;17.30
62706;BMP280;51050;51.784;9.372;2022-10-31T14:49:42;100599.13;;;17.31
62706;BMP280;51050;51.784;9.372;2022-10-31T14:52:12;100601.56;;;17.32
62706;BMP280;51050;51.784;9.372;2022-10-31T14:54:39;100597.97;;;17.32
62706;BMP280;51050;51.784;9.372;2022-10-31T14:57:06;100593.91;;;17.38
62706;BMP280;51050;51.784;9.372;2022-10-31T14:59:35;100581.53;;;17.35
62706;BMP280;51050;51.784;9.372;2022-10-31T15:02:07;100566.53;;;17.28
62706;BMP280;51050;51.784;9.372;2022-10-31T15:04:34;100562.31;;;17.22
62706;BMP280;51050;51.784;9.372;2022-10-31T15:09:43;100571.91;;;17.16
62706;BMP280;51050;51.784;9.372;2022-10-31T15:12:21;100567.03;;;17.13
62706;BMP280;51050;51.784;9.372;2022-10-31T15:14:47;100568.47;;;17.10
62706;BMP280;51050;51.784;9.372;2022-10-31T15:17:12;100568.81;;;17.09
62706;BMP280;51050;51.784;9.372;2022-10-31T15:19:37;100567.19;;;17.08
62706;BMP280;51050;51.784;9.372;2022-10-31T15:22:02;100565.56;;;17.07
62706;BMP280;51050;51.784;9.372;2022-10-31T15:24:30;100565.88;;;17.05
62706;BMP280;51050;51.784;9.372;2022-10-31T15:26:57;100562.47;;;17.08
62706;BMP280;51050;51.784;9.372;2022-10-31T15:29:24;100558.22;;;17.11
62706;BMP280;51050;51.784;9.372;2022-10-31T15:31:50;100564.56;;;17.11
62706;BMP280;51050;51.784;9.372;2022-10-31T15:34:19;100555.13;;;17.12
62706;BMP280;51050;51.784;9.372;2022-10-31T15:36:47;100553.19;;;17.13
62706;BMP280;51050;51.784;9.372;2022-10-31T15:39:12;100556.78;;;17.13
62706;BMP280;51050;51.784;9.372;2022-10-31T15:44:13;100557.28;;;17.15
62706;BMP280;51050;51.784;9.372;2022-10-31T15:46:39;100553.38;;;17.16
62706;BMP280;51050;51.784;9.372;2022-10-31T15:49:10;100553.38;;;17.16
62706;BMP280;51050;51.784;9.372;2022-10-31T15:51:41;100554.34;;;17.20
62706;BMP280;51050;51.784;9.372;2022-10-31T15:54:10;100548.31;;;17.27
62706;BMP280;51050;51.784;9.372;2022-10-31T15:56:38;100545.91;;;17.25
62706;BMP280;51050;51.784;9.372;2022-10-31T15:59:03;100545.72;;;17.22
62706;BMP280;51050;51.784;9.372;2022-10-31T16:01:29;100549.00;;;17.24